Pagina principale
METAR-TAF:

METAR-TAF

Aeroporti :

Aeroporto di Decimomannu

Decimomannu, Italia

latitudine: 39-21N, longitudine: 008-58E, altezza: 29 m

Osservazione

Il bollettino è stato emesso 1 ora e 9 minuti fa, alle 09:55 UTC
Vento 6 kt da nord/nord-ovest
Temperature 20°C
Umidità 73%
Pressione 1019 hPa
Visibilità 10 km o più
Poco nuvoloso ad un'altezza di 3000 ft

METAR: LIED 260955Z 33006KT 9999 FEW030 20/15 Q1019 RMK FEW VIS MIN 9999 WIND THR35 32005KT WIND THR17 32005KT BLU

Ora: 13:04 (11:04 UTC)

Previsione

Il bollettino è stato emesso 3 ore e 4 minuti fa, alle 08:00 UTC
Previsione valida dal 26 alle 09 UTC al 26 alle 18 UTC
Vento 13 kt da nord/nord-ovest
Visibilità 10 km o più
Nubi sparse ad un'altezza di 2500 ft

TAF: LIED 260800Z 2609/2618 34013KT 9999 SCT025

Osservazioni e previsioni meteorologiche di più di 4000 aeroporti (messaggi METAR e TAF).

Le stazioni disponibili sono rappresentate dai dischi gialli e rossi sulla carta.

Puntare il mouse per vedere il nome della stazione.

Clicca sopra per visualizzare le osservazioni e previsioni meteorologiche.

Per cambiare la mappa : fare clic sui pulsanti verdi con una croce nera per ingrandire, il pulsante verde con un trattino per diminuire, o sulla freccia verde per le mappe adiacenti.


METAR-TAF: